createdAt,value
2022-08-05T00:02:11.349Z,99888.92
2022-08-05T00:04:42.055Z,99890.28
2022-08-05T00:07:27.132Z,99891.53
2022-08-05T00:09:44.420Z,99881.25
2022-08-05T00:12:14.854Z,99883.86
2022-08-05T00:14:47.110Z,99884.89
2022-08-05T00:17:19.521Z,99884.89
2022-08-05T00:20:01.937Z,99872.78
2022-08-05T00:22:22.618Z,99881.45
2022-08-05T00:24:55.177Z,99883.28
2022-08-05T00:27:28.387Z,99883.28
2022-08-05T00:29:57.672Z,99875.55
2022-08-05T00:32:29.685Z,99873.08
2022-08-05T00:35:06.559Z,99871.47
2022-08-05T00:37:50.823Z,99882.80
2022-08-05T00:40:05.667Z,99884.21
2022-08-05T00:42:39.021Z,99877.49
2022-08-05T00:45:11.611Z,99876.88
2022-08-05T00:47:56.508Z,99876.88
2022-08-05T00:50:14.508Z,99884.13
2022-08-05T00:52:46.861Z,99878.91
2022-08-05T00:55:17.192Z,99884.54
2022-08-05T00:57:55.338Z,99887.36
2022-08-05T01:00:21.919Z,99887.36
2022-08-05T01:02:52.463Z,99886.09
2022-08-05T01:05:23.290Z,99882.62
2022-08-05T01:08:42.323Z,99885.88
2022-08-05T01:13:58.402Z,99901.59
2022-08-05T01:16:40.455Z,99901.81
2022-08-05T01:19:17.952Z,99897.28
2022-08-05T01:22:10.914Z,99894.63
2022-08-05T01:25:15.703Z,99894.63
2022-08-05T01:27:58.166Z,99896.79
2022-08-05T01:30:34.099Z,99890.36
2022-08-05T01:33:08.393Z,99890.36
2022-08-05T01:35:50.957Z,99890.61
2022-08-05T01:38:24.772Z,99890.61
2022-08-05T01:40:48.047Z,99890.36
2022-08-05T01:43:22.235Z,99893.55
2022-08-05T01:45:56.499Z,99897.00
2022-08-05T01:48:29.749Z,99895.57
2022-08-05T01:51:12.114Z,99895.57
2022-08-05T01:53:57.663Z,99898.20
2022-08-05T01:56:12.130Z,99900.01
2022-08-05T01:58:45.043Z,99899.23
2022-08-05T02:01:28.434Z,99899.23
2022-08-05T02:04:02.240Z,99896.31
2022-08-05T02:06:38.398Z,99896.31
2022-08-05T02:09:07.390Z,99894.91
2022-08-05T02:11:49.434Z,99894.91
2022-08-05T02:14:25.056Z,99888.19
2022-08-05T02:16:57.880Z,99888.19
2022-08-05T02:19:35.104Z,99899.03
2022-08-05T02:22:26.999Z,99888.14
2022-08-05T02:25:00.408Z,99900.58
2022-08-05T02:27:59.573Z,99902.20
2022-08-05T02:32:59.650Z,99910.49
2022-08-05T02:35:38.604Z,99915.38
2022-08-05T02:38:09.516Z,99920.39
2022-08-05T02:40:43.133Z,99924.41
2022-08-05T02:43:15.535Z,99924.41
2022-08-05T02:45:52.520Z,99919.41
2022-08-05T02:48:29.212Z,99922.25
2022-08-05T02:50:58.296Z,99922.25
2022-08-05T02:53:39.446Z,99922.78
2022-08-05T02:56:05.873Z,99919.76
2022-08-05T02:58:43.639Z,99929.27
2022-08-05T03:01:16.064Z,99929.27
2022-08-05T03:04:08.888Z,99920.23
2022-08-05T03:06:54.598Z,99916.03
2022-08-05T03:08:56.009Z,99916.03
2022-08-05T03:11:55.827Z,99930.79
2022-08-05T03:14:03.369Z,99926.32
2022-08-05T03:16:32.513Z,99926.32
2022-08-05T03:19:12.841Z,99926.45
2022-08-05T03:21:41.732Z,99930.06
2022-08-05T03:24:10.562Z,99930.88
2022-08-05T03:26:42.544Z,99930.88
2022-08-05T03:29:17.461Z,99919.73
2022-08-05T03:31:56.162Z,99919.73
2022-08-05T03:34:19.632Z,99898.60
2022-08-05T03:36:51.719Z,99915.97
2022-08-05T03:39:27.141Z,99912.66
2022-08-05T03:41:56.279Z,99912.66
2022-08-05T03:44:28.975Z,99923.58
2022-08-05T03:46:59.640Z,99923.58
2022-08-05T03:49:31.129Z,99919.56
2022-08-05T03:52:36.507Z,99915.16
2022-08-05T03:57:42.478Z,99923.97
2022-08-05T04:00:15.462Z,99922.98
2022-08-05T04:02:57.832Z,99925.17
2022-08-05T04:05:23.627Z,99922.20
2022-08-05T04:07:58.516Z,99916.97
2022-08-05T04:10:32.070Z,99929.53
2022-08-05T04:13:04.031Z,99929.53
2022-08-05T04:15:35.883Z,99926.56
2022-08-05T04:18:09.365Z,99926.56
2022-08-05T04:20:41.170Z,99917.98
2022-08-05T04:23:15.876Z,99917.98
2022-08-05T04:26:00.526Z,99917.41
2022-08-05T04:28:17.238Z,99917.47
2022-08-05T04:30:48.461Z,99915.69
2022-08-05T04:33:20.541Z,99919.35
2022-08-05T04:36:16.439Z,99918.97
2022-08-05T04:38:39.285Z,99931.14
2022-08-05T04:40:56.464Z,99931.14
2022-08-05T04:43:29.498Z,99931.55
2022-08-05T04:46:00.133Z,99927.82
2022-08-05T04:48:30.931Z,99923.59
2022-08-05T04:51:03.593Z,99933.73
2022-08-05T04:53:35.460Z,99933.73
2022-08-05T04:56:32.999Z,99924.85
2022-08-05T04:58:41.162Z,99924.85
2022-08-05T05:01:11.929Z,99916.39
2022-08-05T05:03:42.809Z,99920.23
2022-08-05T05:06:36.528Z,99915.60
2022-08-05T05:09:05.947Z,99915.60
2022-08-05T05:11:42.154Z,99922.88
2022-08-05T05:14:09.489Z,99929.92
2022-08-05T05:16:41.982Z,99929.92
2022-08-05T05:19:19.483Z,99925.88
2022-08-05T05:21:46.498Z,99926.51
2022-08-05T05:24:18.333Z,99933.75
2022-08-05T05:26:51.989Z,99934.52
2022-08-05T05:29:23.809Z,99936.31
2022-08-05T05:31:55.879Z,99936.31
2022-08-05T05:34:27.052Z,99936.91
2022-08-05T05:36:57.673Z,99933.44
2022-08-05T05:39:34.518Z,99933.44
2022-08-05T05:42:05.404Z,99927.40
2022-08-05T05:44:42.927Z,99927.40
2022-08-05T05:47:21.733Z,99938.20
2022-08-05T05:49:39.916Z,99934.26
2022-08-05T05:52:13.063Z,99937.27
2022-08-05T05:54:51.029Z,99945.53
2022-08-05T05:57:19.061Z,99947.44
2022-08-05T05:59:46.745Z,99945.91
2022-08-05T06:02:32.356Z,99951.01
2022-08-05T06:04:50.687Z,99955.33
2022-08-05T06:07:22.457Z,99947.60
2022-08-05T06:10:03.436Z,99955.59
2022-08-05T06:12:27.131Z,99947.98
2022-08-05T06:14:57.810Z,99947.98
2022-08-05T06:17:31.112Z,99959.12
2022-08-05T06:20:03.928Z,99957.65
2022-08-05T06:22:35.748Z,99955.44
2022-08-05T06:25:24.346Z,99956.03
2022-08-05T06:28:12.210Z,99968.72
2022-08-05T06:30:18.146Z,99968.72
2022-08-05T06:32:46.859Z,99982.94
2022-08-05T06:36:02.986Z,99982.94
2022-08-05T06:37:58.127Z,99981.52
2022-08-05T06:40:21.625Z,99987.31
2022-08-05T06:42:53.467Z,99985.73
2022-08-05T06:45:44.838Z,99985.70
2022-08-05T06:48:44.433Z,99987.69
2022-08-05T06:50:28.388Z,99998.44
2022-08-05T06:53:11.424Z,99998.44
2022-08-05T06:55:36.363Z,99996.67
2022-08-05T06:58:20.136Z,99996.67
2022-08-05T07:00:35.623Z,100013.49
2022-08-05T07:03:09.821Z,100020.77
2022-08-05T07:05:41.103Z,100020.77
2022-08-05T07:08:11.855Z,100018.92
2022-08-05T07:10:52.268Z,100018.92
2022-08-05T07:13:17.392Z,100017.00
2022-08-05T07:16:00.801Z,100011.14
2022-08-05T07:18:30.728Z,100020.09
2022-08-05T07:21:05.516Z,100020.09
2022-08-05T07:23:33.264Z,100020.83
2022-08-05T07:26:04.378Z,100029.10
2022-08-05T07:28:35.636Z,100029.10
2022-08-05T07:31:08.188Z,100030.09
2022-08-05T07:33:41.516Z,100023.14
2022-08-05T07:36:19.816Z,100023.14
2022-08-05T07:38:44.193Z,100029.81
2022-08-05T07:42:12.845Z,100023.98
2022-08-05T07:43:52.058Z,100015.38
2022-08-05T07:46:25.137Z,100015.38
2022-08-05T07:49:03.799Z,100013.60
2022-08-05T07:51:37.487Z,100015.91
2022-08-05T07:54:01.926Z,100015.91
2022-08-05T07:56:38.935Z,100015.57
2022-08-05T07:59:04.703Z,100015.57
2022-08-05T08:01:51.675Z,100012.53
2022-08-05T08:04:08.943Z,100004.65
2022-08-05T08:06:39.608Z,100009.38
2022-08-05T08:09:13.230Z,100009.38
2022-08-05T08:11:48.288Z,100013.73
2022-08-05T08:14:19.508Z,100013.73
2022-08-05T08:16:53.534Z,99996.02
2022-08-05T08:20:10.719Z,99996.02
2022-08-05T08:21:53.949Z,100002.16
2022-08-05T08:24:45.958Z,99992.67
2022-08-05T08:26:56.315Z,99992.67
2022-08-05T08:30:04.321Z,100006.13
2022-08-05T08:31:58.782Z,100000.20
2022-08-05T08:34:33.175Z,99995.45
2022-08-05T08:37:05.146Z,99995.45
2022-08-05T08:39:37.386Z,99993.08
2022-08-05T08:42:33.899Z,99992.56
2022-08-05T08:45:18.094Z,99994.81
2022-08-05T08:47:48.093Z,99991.11
2022-08-05T08:50:23.236Z,99991.11
2022-08-05T08:52:28.600Z,99995.60
2022-08-05T08:55:00.061Z,99995.60
2022-08-05T08:57:48.335Z,99992.39
2022-08-05T09:00:04.475Z,99984.77
2022-08-05T09:02:36.196Z,99984.16
2022-08-05T09:05:17.320Z,99984.41
2022-08-05T09:07:58.097Z,99985.08
2022-08-05T09:10:14.521Z,99969.16
2022-08-05T09:12:45.451Z,99958.47
2022-08-05T09:15:21.848Z,99958.47
2022-08-05T09:17:53.203Z,99963.70
2022-08-05T09:20:39.873Z,99963.70
2022-08-05T09:23:19.710Z,99967.92
2022-08-05T09:26:01.756Z,99970.17
2022-08-05T09:28:24.556Z,99963.66
2022-08-05T09:30:58.734Z,99963.66
2022-08-05T09:33:35.092Z,99937.00
2022-08-05T09:36:11.702Z,99937.00
2022-08-05T09:38:38.065Z,99937.88
2022-08-05T09:41:10.135Z,99934.26
2022-08-05T09:43:42.186Z,99931.80
2022-08-05T09:46:51.835Z,99944.53
2022-08-05T09:49:54.643Z,99947.44
2022-08-05T09:51:57.518Z,99947.92
2022-08-05T09:54:32.221Z,99947.92
2022-08-05T09:57:23.238Z,99943.11
2022-08-05T09:59:39.476Z,99943.11
2022-08-05T10:02:11.307Z,99932.69
2022-08-05T10:04:44.882Z,99933.40
2022-08-05T10:08:36.745Z,99922.17
2022-08-05T10:10:14.480Z,99912.52
2022-08-05T10:12:33.514Z,99912.52
2022-08-05T10:15:17.296Z,99908.45
2022-08-05T10:18:09.457Z,99908.45
2022-08-05T10:20:43.086Z,99909.51
2022-08-05T10:23:56.090Z,99909.51
2022-08-05T10:25:58.415Z,99904.95
2022-08-05T10:28:32.409Z,99908.91
2022-08-05T10:32:48.183Z,99906.88
2022-08-05T10:33:37.529Z,99906.60
2022-08-05T10:36:15.900Z,99912.05
2022-08-05T10:38:51.030Z,99912.56
2022-08-05T10:41:46.400Z,99917.05
2022-08-05T10:44:11.584Z,99908.49
2022-08-05T10:46:56.394Z,99917.73
2022-08-05T10:49:33.203Z,99912.33
2022-08-05T10:52:00.200Z,99912.33
2022-08-05T10:55:07.202Z,99911.07
2022-08-05T10:57:44.835Z,99903.57
2022-08-05T11:00:34.912Z,99900.82
2022-08-05T11:03:23.274Z,99900.82
2022-08-05T11:05:41.833Z,99901.73
2022-08-05T11:08:36.747Z,99915.34
2022-08-05T11:10:50.397Z,99920.12
2022-08-05T11:13:54.824Z,99920.12
2022-08-05T11:16:34.041Z,99924.19
2022-08-05T11:20:10.557Z,99907.28
2022-08-05T11:22:02.177Z,99904.22
2022-08-05T11:24:38.825Z,99900.08
2022-08-05T11:30:10.597Z,99918.02
2022-08-05T11:32:43.831Z,99919.77
2022-08-05T11:36:02.832Z,99904.40
2022-08-05T11:38:29.209Z,99904.40
2022-08-05T11:41:34.702Z,99886.09
2022-08-05T11:44:04.602Z,99886.09
2022-08-05T11:46:32.585Z,99886.15
2022-08-05T11:48:50.293Z,99886.15
2022-08-05T11:51:43.569Z,99885.19
2022-08-05T11:53:54.983Z,99882.00
2022-08-05T11:56:40.974Z,99874.91
2022-08-05T11:58:59.355Z,99872.50
2022-08-05T12:01:31.211Z,99875.77
2022-08-05T12:04:13.678Z,99875.77
2022-08-05T12:07:01.826Z,99876.52
2022-08-05T12:09:38.597Z,99896.16
2022-08-05T12:12:08.871Z,99902.87
2022-08-05T12:14:43.301Z,99906.17
2022-08-05T12:18:04.164Z,99919.80
2022-08-05T12:20:27.462Z,99919.80
2022-08-05T12:22:28.009Z,99939.76
2022-08-05T12:24:58.354Z,99939.76
2022-08-05T12:27:36.148Z,99944.88
2022-08-05T12:30:15.290Z,99944.21
2022-08-05T12:32:49.639Z,99929.82
2022-08-05T12:35:22.996Z,99937.66
2022-08-05T12:37:56.016Z,99937.66
2022-08-05T12:40:28.710Z,99950.44
2022-08-05T12:43:00.209Z,99958.44
2022-08-05T12:45:42.714Z,99944.70
2022-08-05T12:48:27.615Z,99944.70
2022-08-05T12:51:21.700Z,99941.58
2022-08-05T12:53:55.849Z,99934.72
2022-08-05T12:56:34.536Z,99919.55
2022-08-05T12:59:27.575Z,99912.23
2022-08-05T13:02:07.889Z,99915.13
2022-08-05T13:04:52.235Z,99920.49
2022-08-05T13:07:47.500Z,99920.49
2022-08-05T13:09:57.190Z,99930.23
2022-08-05T13:12:28.685Z,99935.31
2022-08-05T13:15:05.528Z,99937.02
2022-08-05T13:17:41.349Z,99952.09
2022-08-05T13:20:08.624Z,99952.09
2022-08-05T13:22:41.365Z,99965.41
2022-08-05T13:25:19.354Z,99965.41
2022-08-05T13:27:52.918Z,99958.42
2022-08-05T13:30:33.987Z,99958.42
2022-08-05T13:32:56.840Z,99955.98
2022-08-05T13:35:42.693Z,99955.98
2022-08-05T13:38:07.100Z,99953.05
2022-08-05T13:40:49.988Z,99952.41
2022-08-05T13:43:12.108Z,99934.45
2022-08-05T13:45:43.253Z,99943.54
2022-08-05T13:48:58.519Z,99946.15
2022-08-05T13:50:45.631Z,99946.15
2022-08-05T13:53:18.274Z,99940.94
2022-08-05T13:55:58.855Z,99944.27
2022-08-05T13:58:30.285Z,99944.27
2022-08-05T14:01:02.514Z,99956.66
2022-08-05T14:03:33.018Z,99956.66
2022-08-05T14:06:26.022Z,99953.47
2022-08-05T14:08:39.643Z,99951.15
2022-08-05T14:11:21.049Z,99951.15
2022-08-05T14:13:42.791Z,99943.69
2022-08-05T14:16:19.401Z,99943.69
2022-08-05T14:18:50.550Z,99934.95
2022-08-05T14:22:09.337Z,99926.83
2022-08-05T14:23:58.693Z,99926.83
2022-08-05T14:26:35.832Z,99925.17
2022-08-05T14:29:06.529Z,99925.91
2022-08-05T14:32:03.060Z,99925.91
2022-08-05T14:34:12.037Z,99926.95
2022-08-05T14:36:43.117Z,99917.95
2022-08-05T14:39:15.100Z,99917.95
2022-08-05T14:42:08.596Z,99900.81
2022-08-05T14:44:20.406Z,99900.81
2022-08-05T14:46:51.348Z,99920.30
2022-08-05T14:49:21.744Z,99914.98
2022-08-05T14:51:52.244Z,99914.98
2022-08-05T14:54:28.224Z,99915.81
2022-08-05T14:56:55.174Z,99915.81
2022-08-05T14:59:29.373Z,99922.73
2022-08-05T15:01:59.995Z,99922.73
2022-08-05T15:04:30.440Z,99923.16
2022-08-05T15:07:00.892Z,99927.67
2022-08-05T15:09:51.645Z,99922.66
2022-08-05T15:12:05.600Z,99918.35
2022-08-05T15:14:44.202Z,99927.26
2022-08-05T15:17:10.021Z,99927.26
2022-08-05T15:19:40.988Z,99922.28
2022-08-05T15:22:13.029Z,99914.35
2022-08-05T15:24:44.991Z,99914.35
2022-08-05T15:27:16.064Z,99909.26
2022-08-05T15:29:48.215Z,99909.26
2022-08-05T15:32:19.335Z,99913.34
2022-08-05T15:34:49.775Z,99914.23
2022-08-05T15:38:08.734Z,99928.19
2022-08-05T15:41:02.441Z,99929.08
2022-08-05T15:42:53.631Z,99930.00
2022-08-05T15:44:58.656Z,99930.00
2022-08-05T15:47:32.067Z,99941.48
2022-08-05T15:50:08.736Z,99944.06
2022-08-05T15:52:54.350Z,99944.06
2022-08-05T15:55:16.298Z,99933.61
2022-08-05T15:57:48.929Z,99940.77
2022-08-05T16:00:30.598Z,99940.77
2022-08-05T16:02:51.331Z,99939.03
2022-08-05T16:05:28.506Z,99941.84
2022-08-05T16:08:00.026Z,99940.17
2022-08-05T16:10:30.692Z,99940.17
2022-08-05T16:13:02.261Z,99941.81
2022-08-05T16:15:33.956Z,99940.98
2022-08-05T16:18:08.952Z,99945.25
2022-08-05T16:20:36.430Z,99950.36
2022-08-05T16:23:08.641Z,99951.85
2022-08-05T16:25:39.552Z,99953.56
2022-08-05T16:28:10.512Z,99944.61
2022-08-05T16:30:41.612Z,99944.61
2022-08-05T16:33:12.235Z,99938.73
2022-08-05T16:35:45.253Z,99945.05
2022-08-05T16:38:24.363Z,99937.52
2022-08-05T16:40:55.760Z,99942.36
2022-08-05T16:43:23.966Z,99939.77
2022-08-05T16:46:04.521Z,99954.80
2022-08-05T16:48:33.113Z,99954.80
2022-08-05T16:50:59.621Z,99953.08
2022-08-05T16:53:32.380Z,99952.95
2022-08-05T16:56:05.607Z,99952.95
2022-08-05T16:58:40.398Z,99945.55
2022-08-05T17:01:11.883Z,99932.91
2022-08-05T17:03:42.667Z,99932.91
2022-08-05T17:06:34.018Z,99927.86
2022-08-05T17:09:08.827Z,99926.68
2022-08-05T17:11:48.731Z,99926.68
2022-08-05T17:14:13.017Z,99937.75
2022-08-05T17:16:43.821Z,99937.75
2022-08-05T17:19:15.846Z,99941.68
2022-08-05T17:21:51.487Z,99943.13
2022-08-05T17:24:28.343Z,99945.67
2022-08-05T17:26:50.782Z,99952.23
2022-08-05T17:29:22.744Z,99952.23
2022-08-05T17:31:58.876Z,99956.08
2022-08-05T17:34:32.235Z,99954.70
2022-08-05T17:37:04.585Z,99954.70
2022-08-05T17:39:36.344Z,99957.33
2022-08-05T17:42:18.278Z,99968.90
2022-08-05T17:44:39.555Z,99968.90
2022-08-05T17:47:11.764Z,99973.95
2022-08-05T17:49:52.161Z,99973.95
2022-08-05T17:52:17.555Z,99965.64
2022-08-05T17:54:47.655Z,99958.19
2022-08-05T17:57:18.254Z,99958.19
2022-08-05T18:00:03.084Z,99966.64
2022-08-05T18:02:22.283Z,99963.61
2022-08-05T18:04:55.136Z,99963.99
2022-08-05T18:07:26.162Z,99959.20
2022-08-05T18:09:59.573Z,99974.55
2022-08-05T18:12:30.455Z,99973.77
2022-08-05T18:15:00.876Z,99963.47
2022-08-05T18:18:01.211Z,99969.34
2022-08-05T18:20:03.979Z,99974.40
2022-08-05T18:22:36.403Z,99974.40
2022-08-05T18:25:07.524Z,99977.41
2022-08-05T18:27:40.457Z,99970.94
2022-08-05T18:30:12.694Z,99970.94
2022-08-05T18:32:43.164Z,99975.16
2022-08-05T18:35:15.210Z,99988.72
2022-08-05T18:37:45.644Z,99988.72
2022-08-05T18:41:49.974Z,99987.31
2022-08-05T18:42:49.640Z,99977.01
2022-08-05T18:45:21.756Z,99977.01
2022-08-05T18:47:56.737Z,99969.14
2022-08-05T18:50:45.209Z,99974.61
2022-08-05T18:52:56.763Z,99974.20
2022-08-05T18:55:27.339Z,99975.63
2022-08-05T18:58:03.283Z,99978.46
2022-08-05T19:00:31.733Z,99978.46
2022-08-05T19:03:04.727Z,99986.52
2022-08-05T19:06:13.612Z,99996.84
2022-08-05T19:08:13.621Z,99996.84
2022-08-05T19:10:42.054Z,100005.71
2022-08-05T19:13:16.031Z,100004.24
2022-08-05T19:15:58.998Z,100013.31
2022-08-05T19:18:21.910Z,100012.70
2022-08-05T19:20:50.854Z,100012.70
2022-08-05T19:24:03.726Z,100017.70
2022-08-05T19:25:53.602Z,100013.29
2022-08-05T19:28:25.842Z,100005.38
2022-08-05T19:30:58.029Z,100000.75
2022-08-05T19:33:35.154Z,100006.61
2022-08-05T19:36:06.277Z,100007.20
2022-08-05T19:38:37.564Z,100007.20
2022-08-05T19:41:09.035Z,100003.92
2022-08-05T19:44:06.629Z,100003.92
2022-08-05T19:46:16.824Z,100008.95
2022-08-05T19:48:48.437Z,100006.50
2022-08-05T19:52:05.975Z,100018.02
2022-08-05T19:54:04.588Z,100014.73
2022-08-05T19:56:32.448Z,100014.07
2022-08-05T19:58:55.118Z,100014.07
2022-08-05T20:01:28.566Z,100018.21
2022-08-05T20:03:59.405Z,100006.17
2022-08-05T20:06:37.801Z,100005.88
2022-08-05T20:09:13.745Z,100006.84
2022-08-05T20:11:37.862Z,99993.52
2022-08-05T20:14:14.219Z,99993.52
2022-08-05T20:16:40.836Z,100004.92
2022-08-05T20:19:13.204Z,99993.63
2022-08-05T20:21:44.881Z,99996.82
2022-08-05T20:24:16.087Z,99984.70
2022-08-05T20:26:46.641Z,99984.70
2022-08-05T20:29:27.329Z,99988.28
2022-08-05T20:31:53.569Z,99988.28
2022-08-05T20:34:21.549Z,99998.17
2022-08-05T20:36:54.173Z,99998.17
2022-08-05T20:39:25.953Z,99999.95
2022-08-05T20:41:57.835Z,99994.66
2022-08-05T20:44:31.124Z,100002.72
2022-08-05T20:47:04.377Z,100002.72
2022-08-05T20:49:39.450Z,99993.00
2022-08-05T20:52:07.908Z,99994.98
2022-08-05T20:54:59.680Z,100000.27
2022-08-05T20:57:42.515Z,100002.45
2022-08-05T21:00:19.482Z,100002.45
2022-08-05T21:02:20.307Z,99997.74
2022-08-05T21:04:52.264Z,99994.22
2022-08-05T21:07:22.614Z,99994.22
2022-08-05T21:09:53.772Z,100006.95
2022-08-05T21:12:26.032Z,100006.95
2022-08-05T21:14:57.021Z,100003.25
2022-08-05T21:17:29.107Z,100003.25
2022-08-05T21:20:03.019Z,99993.45
2022-08-05T21:22:32.040Z,99989.27
2022-08-05T21:25:02.490Z,99989.27
2022-08-05T21:27:38.992Z,99992.68
2022-08-05T21:30:08.934Z,100006.77
2022-08-05T21:32:41.124Z,99994.37
2022-08-05T21:35:29.423Z,100004.72
2022-08-05T21:37:52.690Z,100004.72
2022-08-05T21:40:17.135Z,99995.36
2022-08-05T21:42:48.278Z,100001.27
2022-08-05T21:45:24.612Z,99998.19
2022-08-05T21:47:57.688Z,99997.84
2022-08-05T21:50:29.797Z,99994.37
2022-08-05T21:53:08.444Z,100001.22
2022-08-05T21:55:42.988Z,99997.98
2022-08-05T21:58:10.522Z,99997.40
2022-08-05T22:00:40.872Z,99994.22
2022-08-05T22:03:20.703Z,99994.22
2022-08-05T22:05:51.229Z,99996.85
2022-08-05T22:08:24.305Z,99996.85
2022-08-05T22:10:55.734Z,100000.66
2022-08-05T22:14:19.586Z,100000.66
2022-08-05T22:16:04.983Z,100000.29
2022-08-05T22:18:30.371Z,99991.48
2022-08-05T22:21:04.660Z,99989.43
2022-08-05T22:24:02.056Z,100013.39
2022-08-05T22:26:09.905Z,99998.00
2022-08-05T22:28:39.461Z,99994.92
2022-08-05T22:31:11.946Z,99994.92
2022-08-05T22:33:57.797Z,99995.69
2022-08-05T22:36:16.572Z,99994.28
2022-08-05T22:38:48.042Z,99990.70
2022-08-05T22:41:26.493Z,99989.34
2022-08-05T22:43:53.646Z,99989.34
2022-08-05T22:46:25.975Z,99986.52
2022-08-05T22:48:56.304Z,99987.23
2022-08-05T22:52:02.517Z,99988.44
2022-08-05T22:53:58.631Z,99988.44
2022-08-05T22:56:30.164Z,99984.95
2022-08-05T22:59:04.043Z,99982.98
2022-08-05T23:02:04.710Z,99980.94
2022-08-05T23:04:05.657Z,99985.42
2022-08-05T23:06:39.066Z,99985.42
2022-08-05T23:09:26.989Z,99985.33
2022-08-05T23:11:42.044Z,99982.98
2022-08-05T23:14:14.006Z,99973.31
2022-08-05T23:16:46.020Z,99973.31
2022-08-05T23:19:25.869Z,99973.79
2022-08-05T23:21:49.918Z,99962.25
2022-08-05T23:24:20.254Z,99971.23
2022-08-05T23:26:52.437Z,99968.21
2022-08-05T23:29:23.298Z,99977.35
2022-08-05T23:31:55.354Z,99975.78
2022-08-05T23:34:26.779Z,99975.78
2022-08-05T23:36:57.332Z,99963.66
2022-08-05T23:39:32.400Z,99969.25
2022-08-05T23:42:02.110Z,99969.25
2022-08-05T23:44:33.329Z,99974.33
2022-08-05T23:47:14.635Z,99974.33
2022-08-05T23:49:36.449Z,99977.91
2022-08-05T23:52:08.413Z,99983.76
2022-08-05T23:54:40.261Z,99983.76
2022-08-05T23:57:10.555Z,99981.81
